Time;durP1;ratioP1;P1;durP2;ratioP2;P2;SDS_P1;SDS_P2;PMS_P1;PMS_P2;Temp;Humidity;BMP_temperature;BMP_pressure;BME280_temperature;BME280_humidity;BME280_pressure;Samples;Min_cycle;Max_cycle;Signal;HPM_P1;HPM_P2
2021/09/01 00:00:39;;;;;;;18.00;5.72;;;;;;;;;;5096381;28;20048;-65
2021/09/01 00:03:06;;;;;;;8.32;4.50;;;;;;;;;;5095980;28;20105;-65
2021/09/01 00:05:33;;;;;;;8.60;5.22;;;;;;;;;;5101882;28;20210;-65
2021/09/01 00:07:59;;;;;;;7.30;5.28;;;;;;;;;;5095867;28;20101;-65
2021/09/01 00:10:26;;;;;;;12.10;5.75;;;;;;;;;;5110960;27;20082;-66
2021/09/01 00:12:52;;;;;;;9.10;5.57;;;;;;;;;;5100320;28;20060;-65
2021/09/01 00:15:19;;;;;;;12.38;5.38;;;;;;;;;;5100186;28;20135;-65
2021/09/01 00:17:45;;;;;;;9.57;5.55;;;;;;;;;;5100252;28;20134;-65
2021/09/01 00:20:12;;;;;;;10.07;6.00;;;;;;;;;;5102704;28;20129;-65
2021/09/01 00:22:39;;;;;;;8.55;5.43;;;;;;;;;;5099108;28;20079;-65
2021/09/01 00:25:06;;;;;;;10.35;5.75;;;;;;;;;;5103064;28;20087;-65
2021/09/01 00:27:33;;;;;;;;;;;;;;;;;;5100273;28;20095;-65
2021/09/01 00:29:59;;;;;;;8.80;5.85;;;;;;;;;;5098489;28;20692;-65
2021/09/01 00:32:26;;;;;;;11.85;6.20;;;;;;;;;;5097756;28;20074;-65
2021/09/01 00:34:52;;;;;;;10.23;5.72;;;;;;;;;;5098774;27;20135;-65
2021/09/01 00:37:19;;;;;;;11.65;6.30;;;;;;;;;;5101986;28;20510;-65
2021/09/01 00:39:45;;;;;;;10.48;6.47;;;;;;;;;;5103239;27;20096;-65
2021/09/01 00:42:12;;;;;;;10.33;6.40;;;;;;;;;;5099511;28;20048;-65
2021/09/01 00:44:40;;;;;;;10.80;6.55;;;;;;;;;;5103281;28;20105;-65
2021/09/01 00:47:06;;;;;;;8.77;5.50;;;;;;;;;;5094926;28;20094;-65
2021/09/01 00:49:33;;;;;;;10.60;5.95;;;;;;;;;;5107614;27;20190;-66
2021/09/01 00:52:04;;;;;;;13.03;6.70;;;;;;;;;;5102730;28;20134;-65
2021/09/01 00:54:31;;;;;;;11.02;6.65;;;;;;;;;;5103416;27;20347;-66
2021/09/01 00:56:59;;;;;;;8.27;5.75;;;;;;;;;;5097034;28;20126;-65
2021/09/01 00:59:26;;;;;;;12.48;6.28;;;;;;;;;;5104405;27;20134;-65
2021/09/01 01:01:53;;;;;;;10.60;6.10;;;;;;;;;;5102947;28;20080;-65
2021/09/01 01:04:24;;;;;;;10.82;6.15;;;;;;;;;;5098534;28;20544;-66
2021/09/01 01:06:51;;;;;;;11.02;6.82;;;;;;;;;;5098874;28;20068;-65
2021/09/01 01:09:17;;;;;;;9.18;5.50;;;;;;;;;;5104119;27;20054;-65
2021/09/01 01:12:02;;;;;;;10.23;5.28;;;;;;;;;;5099381;28;20490;-65
2021/09/01 01:14:29;;;;;;;8.48;4.70;;;;;;;;;;5100896;28;20077;-65
2021/09/01 01:16:56;;;;;;;12.63;5.20;;;;;;;;;;5101850;28;20134;-65
2021/09/01 01:19:22;;;;;;;10.30;5.93;;;;;;;;;;5105594;27;20227;-65
2021/09/01 01:21:49;;;;;;;12.60;5.85;;;;;;;;;;5101452;28;20116;-65
2021/09/01 01:24:16;;;;;;;9.60;5.07;;;;;;;;;;5086492;28;20479;-65
2021/09/01 01:26:42;;;;;;;15.48;6.45;;;;;;;;;;5101994;27;20131;-65
2021/09/01 01:29:10;;;;;;;10.73;6.28;;;;;;;;;;5098538;28;20567;-65
2021/09/01 01:31:38;;;;;;;10.95;6.07;;;;;;;;;;5094447;28;20079;-65
2021/09/01 01:34:11;;;;;;;13.30;6.18;;;;;;;;;;5097944;28;20453;-65
2021/09/01 01:36:38;;;;;;;12.93;6.13;;;;;;;;;;5100985;28;20078;-65
2021/09/01 01:39:04;;;;;;;9.23;5.28;;;;;;;;;;5102073;27;20134;-65
2021/09/01 01:41:31;;;;;;;13.68;5.50;;;;;;;;;;5085937;28;20086;-65
2021/09/01 01:43:58;;;;;;;8.95;5.95;;;;;;;;;;5096543;28;20083;-65
2021/09/01 01:46:24;;;;;;;11.32;6.57;;;;;;;;;;5096386;28;20131;-65
2021/09/01 01:48:51;;;;;;;10.98;6.18;;;;;;;;;;5101730;27;20054;-65
2021/09/01 01:51:17;;;;;;;13.75;6.72;;;;;;;;;;5110561;28;20131;-65
2021/09/01 01:53:45;;;;;;;12.40;6.32;;;;;;;;;;5094831;28;20540;-65
2021/09/01 01:56:12;;;;;;;12.00;6.13;;;;;;;;;;5102794;28;20472;-65
2021/09/01 01:58:38;;;;;;;10.93;5.72;;;;;;;;;;5097505;28;20097;-65
2021/09/01 02:01:05;;;;;;;14.30;5.07;;;;;;;;;;5095248;28;20076;-65
2021/09/01 02:03:31;;;;;;;12.60;6.00;;;;;;;;;;5098163;28;20044;-65
2021/09/01 02:05:58;;;;;;;12.02;6.22;;;;;;;;;;5096845;27;20094;-65
2021/09/01 02:08:25;;;;;;;10.80;6.10;;;;;;;;;;5099400;27;20068;-65
2021/09/01 02:10:51;;;;;;;17.50;7.17;;;;;;;;;;5103262;28;20083;-65
2021/09/01 02:13:18;;;;;;;9.83;5.60;;;;;;;;;;5103030;28;20075;-65
2021/09/01 02:15:44;;;;;;;9.15;6.05;;;;;;;;;;5097414;28;20329;-65
2021/09/01 02:18:11;;;;;;;13.07;6.03;;;;;;;;;;5101185;28;20071;-64
2021/09/01 02:20:37;;;;;;;11.25;6.05;;;;;;;;;;5102288;27;20130;-65
2021/09/01 02:23:04;;;;;;;10.82;6.22;;;;;;;;;;5104234;28;20078;-65
2021/09/01 02:25:30;;;;;;;11.40;6.50;;;;;;;;;;5099249;28;20072;-65
2021/09/01 02:27:57;;;;;;;10.77;5.73;;;;;;;;;;5103837;28;20543;-65
2021/09/01 02:30:24;;;;;;;6.35;3.60;;;;;;;;;;5100014;27;20473;-65
2021/09/01 02:32:50;;;;;;;8.00;5.00;;;;;;;;;;5099740;28;20086;-65
2021/09/01 02:35:17;;;;;;;9.33;4.93;;;;;;;;;;5078925;28;20071;-65
2021/09/01 02:37:43;;;;;;;8.90;5.47;;;;;;;;;;5097378;28;20101;-65
2021/09/01 02:40:10;;;;;;;12.13;5.82;;;;;;;;;;5095101;28;20044;-65
2021/09/01 02:42:36;;;;;;;14.30;6.33;;;;;;;;;;5100202;28;20075;-65
2021/09/01 02:45:03;;;;;;;9.98;6.13;;;;;;;;;;5097517;28;20585;-65
2021/09/01 02:47:31;;;;;;;12.27;6.55;;;;;;;;;;5099057;28;20047;-65
2021/09/01 02:49:57;;;;;;;15.10;7.60;;;;;;;;;;5099263;28;20131;-65
2021/09/01 02:52:24;;;;;;;14.55;7.78;;;;;;;;;;5097603;28;20470;-65
2021/09/01 02:54:50;;;;;;;13.13;6.65;;;;;;;;;;5099176;28;20468;-65
2021/09/01 02:57:17;;;;;;;15.00;7.47;;;;;;;;;;5100877;28;20142;-65
2021/09/01 02:59:44;;;;;;;16.48;7.65;;;;;;;;;;5096993;27;20462;-65
2021/09/01 03:02:10;;;;;;;11.27;7.03;;;;;;;;;;5095768;27;20673;-65
2021/09/01 03:04:37;;;;;;;14.68;8.00;;;;;;;;;;5090355;28;20044;-65
2021/09/01 03:07:04;;;;;;;18.20;7.78;;;;;;;;;;5094428;28;20052;-65
2021/09/01 03:09:30;;;;;;;8.02;5.07;;;;;;;;;;5101331;27;20048;-65
2021/09/01 03:11:57;;;;;;;13.38;4.95;;;;;;;;;;5099736;28;20076;-65
2021/09/01 03:14:23;;;;;;;12.45;6.22;;;;;;;;;;5091824;28;20142;-65
2021/09/01 03:16:50;;;;;;;10.35;5.65;;;;;;;;;;5105916;28;20152;-65
2021/09/01 03:19:16;;;;;;;12.73;6.33;;;;;;;;;;5098083;28;20054;-64
2021/09/01 03:21:43;;;;;;;16.40;7.78;;;;;;;;;;5100366;28;20372;-64
2021/09/01 03:24:09;;;;;;;18.77;7.28;;;;;;;;;;5097686;28;20087;-65
2021/09/01 03:26:36;;;;;;;12.10;6.65;;;;;;;;;;5102008;28;20423;-65
2021/09/01 03:29:02;;;;;;;10.63;6.30;;;;;;;;;;5101468;28;20075;-65
2021/09/01 03:31:29;;;;;;;8.45;5.07;;;;;;;;;;5097316;28;20101;-64
2021/09/01 03:33:55;;;;;;;10.83;5.73;;;;;;;;;;5099204;28;20051;-65
2021/09/01 03:36:22;;;;;;;10.48;5.47;;;;;;;;;;5099059;28;20134;-65
2021/09/01 03:38:49;;;;;;;10.13;5.55;;;;;;;;;;5101367;27;20575;-65
2021/09/01 03:41:16;;;;;;;10.50;6.45;;;;;;;;;;5102293;28;20551;-65
2021/09/01 03:43:42;;;;;;;14.83;5.93;;;;;;;;;;5098624;28;20151;-65
2021/09/01 03:46:09;;;;;;;10.73;6.30;;;;;;;;;;5098822;28;20074;-65
2021/09/01 03:48:35;;;;;;;12.18;6.53;;;;;;;;;;5101258;28;20051;-64
2021/09/01 03:51:02;;;;;;;10.80;6.18;;;;;;;;;;5100131;28;20051;-64
2021/09/01 03:53:28;;;;;;;14.13;6.63;;;;;;;;;;5102807;27;20130;-65
2021/09/01 03:55:55;;;;;;;14.73;6.43;;;;;;;;;;5103254;28;20135;-65
2021/09/01 03:58:22;;;;;;;12.55;6.45;;;;;;;;;;5101017;27;20126;-64
2021/09/01 04:00:48;;;;;;;14.85;6.10;;;;;;;;;;5103834;28;20142;-65
2021/09/01 04:03:15;;;;;;;11.63;6.47;;;;;;;;;;5099936;28;20079;-65
2021/09/01 04:05:41;;;;;;;12.38;6.75;;;;;;;;;;5102842;28;20047;-64
2021/09/01 04:08:08;;;;;;;11.52;6.75;;;;;;;;;;5102162;28;20087;-64
2021/09/01 04:10:35;;;;;;;18.00;7.85;;;;;;;;;;5100621;28;20571;-65
2021/09/01 04:13:01;;;;;;;15.30;8.30;;;;;;;;;;5096137;28;20093;-65
2021/09/01 04:15:29;;;;;;;13.68;7.15;;;;;;;;;;5099207;27;20467;-64
2021/09/01 04:17:57;;;;;;;18.35;8.10;;;;;;;;;;5099530;27;20667;-65
2021/09/01 04:20:24;;;;;;;16.20;7.47;;;;;;;;;;5097496;28;20080;-65
2021/09/01 04:22:50;;;;;;;13.98;7.63;;;;;;;;;;5102108;28;20079;-64
2021/09/01 04:25:17;;;;;;;12.43;6.55;;;;;;;;;;5108003;28;20546;-64
2021/09/01 04:27:43;;;;;;;16.67;8.07;;;;;;;;;;5096217;28;20086;-64
2021/09/01 04:30:10;;;;;;;17.58;6.95;;;;;;;;;;5102471;28;20127;-64
2021/09/01 04:32:36;;;;;;;16.17;7.23;;;;;;;;;;5105820;28;20127;-64
2021/09/01 04:35:03;;;;;;;19.92;7.40;;;;;;;;;;5101441;27;20102;-65
2021/09/01 04:37:30;;;;;;;12.38;6.60;;;;;;;;;;5099728;28;20136;-64
2021/09/01 04:39:57;;;;;;;15.60;7.50;;;;;;;;;;5100253;28;20086;-65
2021/09/01 04:42:23;;;;;;;14.98;6.97;;;;;;;;;;5105938;28;20131;-65
2021/09/01 04:44:50;;;;;;;12.38;7.28;;;;;;;;;;5100635;27;20102;-66
2021/09/01 04:47:16;;;;;;;12.88;7.18;;;;;;;;;;5096272;28;20509;-65
2021/09/01 04:49:43;;;;;;;14.02;7.20;;;;;;;;;;5100598;28;20118;-65
2021/09/01 04:52:09;;;;;;;11.32;6.57;;;;;;;;;;5099143;28;20123;-65
2021/09/01 04:54:36;;;;;;;11.88;6.75;;;;;;;;;;5103063;28;20047;-65
2021/09/01 04:57:03;;;;;;;19.35;7.72;;;;;;;;;;5099187;28;20102;-65
2021/09/01 04:59:29;;;;;;;12.52;7.20;;;;;;;;;;5099009;28;20142;-65
2021/09/01 05:01:56;;;;;;;10.00;6.32;;;;;;;;;;5099326;28;20082;-64
2021/09/01 05:04:22;;;;;;;14.45;6.18;;;;;;;;;;5097668;28;20044;-64
2021/09/01 05:06:49;;;;;;;13.32;7.55;;;;;;;;;;5100563;27;20126;-65
2021/09/01 05:09:15;;;;;;;14.05;7.55;;;;;;;;;;5098645;28;20134;-65
2021/09/01 05:11:42;;;;;;;15.60;8.30;;;;;;;;;;5093477;28;20063;-65
2021/09/01 05:14:08;;;;;;;13.55;6.47;;;;;;;;;;5108478;27;20127;-65
2021/09/01 05:16:35;;;;;;;11.37;6.90;;;;;;;;;;5098762;28;20132;-65
2021/09/01 05:19:01;;;;;;;17.63;7.95;;;;;;;;;;5102750;28;20079;-65
2021/09/01 05:21:29;;;;;;;15.25;7.40;;;;;;;;;;5100980;28;20051;-65
2021/09/01 05:23:56;;;;;;;18.73;8.35;;;;;;;;;;5100071;27;20126;-65
2021/09/01 05:26:27;;;;;;;13.55;7.65;;;;;;;;;;5099089;28;20301;-65
2021/09/01 05:28:53;;;;;;;9.57;5.32;;;;;;;;;;5099039;27;20047;-64
2021/09/01 05:31:21;;;;;;;9.48;5.20;;;;;;;;;;5099400;28;20102;-65
2021/09/01 05:33:49;;;;;;;12.10;5.93;;;;;;;;;;5100690;28;20507;-65
2021/09/01 05:36:17;;;;;;;10.00;6.15;;;;;;;;;;5102637;27;20094;-64
2021/09/01 05:38:44;;;;;;;14.40;7.63;;;;;;;;;;5096444;28;20074;-65
2021/09/01 05:41:11;;;;;;;10.90;5.85;;;;;;;;;;5096338;28;20135;-65
2021/09/01 05:43:38;;;;;;;12.85;5.82;;;;;;;;;;5095436;28;20135;-65
2021/09/01 05:46:05;;;;;;;12.43;6.75;;;;;;;;;;5093764;28;20492;-64
2021/09/01 05:48:32;;;;;;;13.95;7.05;;;;;;;;;;5097996;27;20044;-65
2021/09/01 05:50:59;;;;;;;13.95;7.90;;;;;;;;;;5096077;28;20170;-64
2021/09/01 05:53:26;;;;;;;14.23;7.70;;;;;;;;;;5091768;28;20124;-65
2021/09/01 05:55:53;;;;;;;12.88;7.45;;;;;;;;;;5100806;28;20087;-65
2021/09/01 05:58:20;;;;;;;16.48;8.68;;;;;;;;;;5094768;28;20050;-65
2021/09/01 06:00:52;;;;;;;15.30;7.95;;;;;;;;;;5095291;28;20135;-65
2021/09/01 06:03:30;;;;;;;15.73;7.78;;;;;;;;;;5094343;28;20048;-65
2021/09/01 06:05:58;;;;;;;17.20;8.52;;;;;;;;;;5092894;27;20089;-65
2021/09/01 06:08:30;;;;;;;16.48;8.82;;;;;;;;;;5096869;28;20406;-65
2021/09/01 06:10:57;;;;;;;15.10;8.93;;;;;;;;;;5095264;28;20144;-64
2021/09/01 06:13:24;;;;;;;16.65;9.63;;;;;;;;;;5101589;28;20056;-65
2021/09/01 06:15:50;;;;;;;13.60;8.20;;;;;;;;;;5102925;27;20047;-65
2021/09/01 06:18:17;;;;;;;14.10;9.10;;;;;;;;;;5101081;27;20127;-65
2021/09/01 06:20:43;;;;;;;13.48;7.57;;;;;;;;;;5097572;28;20482;-65
2021/09/01 06:23:10;;;;;;;13.13;8.55;;;;;;;;;;5099503;28;20140;-65
2021/09/01 06:25:37;;;;;;;14.07;7.93;;;;;;;;;;5098199;27;20135;-65
2021/09/01 06:28:04;;;;;;;12.25;8.02;;;;;;;;;;5097268;28;20292;-67
2021/09/01 06:30:31;;;;;;;13.77;7.35;;;;;;;;;;5098107;28;20083;-65
2021/09/01 06:32:57;;;;;;;10.80;7.55;;;;;;;;;;5094265;28;20086;-65
2021/09/01 06:35:24;;;;;;;11.93;7.80;;;;;;;;;;5106745;27;20122;-66
2021/09/01 06:37:52;;;;;;;12.60;7.88;;;;;;;;;;5103110;27;20050;-66
2021/09/01 06:40:19;;;;;;;12.60;7.40;;;;;;;;;;5101637;27;20087;-67
2021/09/01 06:42:46;;;;;;;15.30;8.25;;;;;;;;;;5093839;28;20119;-65
2021/09/01 06:45:13;;;;;;;10.20;6.90;;;;;;;;;;5094733;28;20134;-65
2021/09/01 06:47:44;;;;;;;12.95;7.47;;;;;;;;;;5099845;28;20080;-66
2021/09/01 06:50:13;;;;;;;10.38;6.00;;;;;;;;;;5095949;27;20050;-67
2021/09/01 06:52:39;;;;;;;;;;;;;;;;;;5094560;28;20091;-67
2021/09/01 06:55:06;;;;;;;9.70;6.70;;;;;;;;;;5096925;28;20007;-67
2021/09/01 06:57:34;;;;;;;11.80;6.63;;;;;;;;;;5095089;28;20044;-67
2021/09/01 07:00:02;;;;;;;10.52;6.93;;;;;;;;;;5099276;27;20143;-67
2021/09/01 07:02:29;;;;;;;10.40;6.65;;;;;;;;;;5102002;28;20075;-67
2021/09/01 07:04:56;;;;;;;12.82;6.25;;;;;;;;;;5095606;28;20067;-65
2021/09/01 07:07:23;;;;;;;13.27;6.35;;;;;;;;;;5092405;28;20142;-65
2021/09/01 07:09:50;;;;;;;12.05;6.95;;;;;;;;;;5100670;27;20130;-65
2021/09/01 07:12:16;;;;;;;9.95;6.57;;;;;;;;;;5096748;28;20402;-65
2021/09/01 07:14:43;;;;;;;10.15;7.10;;;;;;;;;;5098114;27;20055;-65
2021/09/01 07:17:09;;;;;;;9.25;6.60;;;;;;;;;;5099350;28;20123;-65
2021/09/01 07:19:36;;;;;;;14.83;6.83;;;;;;;;;;5101213;28;20491;-65
2021/09/01 07:22:03;;;;;;;10.70;6.30;;;;;;;;;;5103074;28;20912;-67
2021/09/01 07:24:29;;;;;;;9.60;6.13;;;;;;;;;;5099435;27;20126;-67
2021/09/01 07:26:55;;;;;;;12.43;7.40;;;;;;;;;;5100260;28;20075;-67
2021/09/01 07:29:22;;;;;;;11.48;6.68;;;;;;;;;;5101723;28;20592;-67
2021/09/01 07:31:48;;;;;;;12.70;7.05;;;;;;;;;;5093441;28;20052;-67
2021/09/01 07:34:15;;;;;;;10.20;7.33;;;;;;;;;;5097451;28;20067;-65
2021/09/01 07:36:41;;;;;;;10.35;6.22;;;;;;;;;;5091013;28;20086;-65
2021/09/01 07:39:08;;;;;;;9.85;6.50;;;;;;;;;;5096940;28;21063;-65
2021/09/01 07:41:37;;;;;;;9.70;6.68;;;;;;;;;;5096727;28;20127;-65
2021/09/01 07:44:04;;;;;;;10.18;6.97;;;;;;;;;;5099732;28;20139;-65
2021/09/01 07:46:30;;;;;;;9.27;6.40;;;;;;;;;;5095721;28;20127;-65
2021/09/01 07:49:00;;;;;;;9.63;6.53;;;;;;;;;;5099364;28;20054;-65
2021/09/01 07:51:27;;;;;;;10.70;6.93;;;;;;;;;;5097448;28;20472;-64
2021/09/01 07:53:54;;;;;;;11.35;6.88;;;;;;;;;;5100838;28;20144;-65
2021/09/01 07:56:21;;;;;;;8.40;6.32;;;;;;;;;;5099227;28;20083;-65
2021/09/01 07:58:47;;;;;;;11.55;6.40;;;;;;;;;;5098859;28;20075;-64
2021/09/01 08:01:13;;;;;;;8.15;6.20;;;;;;;;;;5100022;28;20469;-65
2021/09/01 08:03:40;;;;;;;8.98;6.28;;;;;;;;;;5096396;28;20052;-65
2021/09/01 08:06:07;;;;;;;9.88;7.00;;;;;;;;;;5100588;28;20131;-65
2021/09/01 08:08:34;;;;;;;13.68;6.50;;;;;;;;;;5099686;28;20044;-65
2021/09/01 08:11:01;;;;;;;10.18;5.78;;;;;;;;;;5085310;28;20044;-65
2021/09/01 08:13:28;;;;;;;9.10;6.20;;;;;;;;;;5100934;28;20083;-65
2021/09/01 08:15:54;;;;;;;9.45;6.55;;;;;;;;;;5101907;28;20550;-65
2021/09/01 08:18:21;;;;;;;11.83;6.70;;;;;;;;;;5095743;28;20086;-65
2021/09/01 08:20:47;;;;;;;9.13;6.50;;;;;;;;;;5100276;28;20135;-65
2021/09/01 08:23:14;;;;;;;8.43;5.53;;;;;;;;;;5094263;28;20080;-65
2021/09/01 08:25:41;;;;;;;;;;;;;;;;;;5105627;27;20105;-65
2021/09/01 08:28:07;;;;;;;10.93;6.90;;;;;;;;;;5100615;28;20050;-65
2021/09/01 08:30:34;;;;;;;9.77;5.95;;;;;;;;;;5100728;27;20044;-65
2021/09/01 08:33:01;;;;;;;11.18;6.22;;;;;;;;;;5098015;28;20044;-65
2021/09/01 08:35:27;;;;;;;11.50;6.65;;;;;;;;;;5097139;28;20135;-65
2021/09/01 08:37:54;;;;;;;8.63;6.53;;;;;;;;;;5088817;27;20139;-65
2021/09/01 08:40:20;;;;;;;9.23;6.07;;;;;;;;;;5098535;28;20064;-65
2021/09/01 08:42:47;;;;;;;10.35;6.65;;;;;;;;;;5099496;27;20264;-65
2021/09/01 08:45:14;;;;;;;10.32;5.47;;;;;;;;;;5106522;27;20139;-65
2021/09/01 08:47:40;;;;;;;8.27;5.93;;;;;;;;;;5102479;28;20047;-65
2021/09/01 08:50:08;;;;;;;8.77;5.68;;;;;;;;;;5098583;28;20044;-65
2021/09/01 08:52:37;;;;;;;7.88;5.93;;;;;;;;;;5102672;28;20598;-65
2021/09/01 08:55:08;;;;;;;9.13;6.03;;;;;;;;;;5107498;27;20046;-65
2021/09/01 08:57:34;;;;;;;7.47;5.47;;;;;;;;;;5106326;28;20174;-65
2021/09/01 09:00:02;;;;;;;9.67;5.13;;;;;;;;;;5100304;27;20052;-65
2021/09/01 09:02:29;;;;;;;9.48;5.70;;;;;;;;;;5101103;28;20334;-65
2021/09/01 09:04:57;;;;;;;7.35;5.35;;;;;;;;;;5102408;27;20052;-64
2021/09/01 09:07:24;;;;;;;;;;;;;;;;;;5096976;28;20036;-65
2021/09/01 09:09:51;;;;;;;7.97;5.68;;;;;;;;;;5102085;28;19973;-64
2021/09/01 09:12:28;;;;;;;6.63;5.20;;;;;;;;;;5099298;28;20048;-65
2021/09/01 09:14:54;;;;;;;7.60;5.00;;;;;;;;;;5102193;27;20539;-65
2021/09/01 09:17:21;;;;;;;6.68;5.30;;;;;;;;;;5101827;27;20122;-64
2021/09/01 09:19:49;;;;;;;9.32;5.20;;;;;;;;;;5102646;28;20040;-65
2021/09/01 09:22:23;;;;;;;6.53;4.90;;;;;;;;;;5097943;28;20051;-65
2021/09/01 09:25:08;;;;;;;7.50;4.78;;;;;;;;;;5101603;27;20106;-64
2021/09/01 09:27:42;;;;;;;7.57;5.03;;;;;;;;;;5100412;28;20078;-64
2021/09/01 09:30:24;;;;;;;5.90;4.65;;;;;;;;;;5104289;27;20131;-65
2021/09/01 09:32:55;;;;;;;6.95;5.07;;;;;;;;;;5099830;27;20608;-65
2021/09/01 09:35:22;;;;;;;9.30;5.95;;;;;;;;;;5097617;28;20115;-65
2021/09/01 09:38:00;;;;;;;7.68;5.53;;;;;;;;;;5102417;27;20039;-64
2021/09/01 09:40:27;;;;;;;7.68;5.05;;;;;;;;;;5097620;27;20143;-65
2021/09/01 09:42:54;;;;;;;7.15;4.95;;;;;;;;;;5101247;27;20079;-65
2021/09/01 09:45:22;;;;;;;7.63;5.07;;;;;;;;;;5097619;28;20135;-65
2021/09/01 09:47:50;;;;;;;7.25;4.75;;;;;;;;;;5101205;28;20789;-64
2021/09/01 09:50:16;;;;;;;6.90;5.18;;;;;;;;;;5103525;27;20071;-65
2021/09/01 09:52:43;;;;;;;7.10;5.22;;;;;;;;;;5101041;28;20767;-64
2021/09/01 09:55:13;;;;;;;8.47;5.37;;;;;;;;;;5100662;28;20075;-64
2021/09/01 09:57:50;;;;;;;6.97;4.72;;;;;;;;;;5098554;28;20325;-64
2021/09/01 10:00:17;;;;;;;7.32;5.53;;;;;;;;;;5098892;27;20519;-64
2021/09/01 10:02:45;;;;;;;7.75;4.78;;;;;;;;;;5097201;28;20062;-65
2021/09/01 10:05:12;;;;;;;6.35;5.00;;;;;;;;;;5100257;28;20047;-65
2021/09/01 10:07:39;;;;;;;;;;;;;;;;;;5101353;27;20126;-64
2021/09/01 10:10:06;;;;;;;6.40;4.93;;;;;;;;;;5092714;27;19984;-65
2021/09/01 10:12:36;;;;;;;7.53;4.80;;;;;;;;;;5104812;27;20082;-65
2021/09/01 10:15:04;;;;;;;5.75;4.90;;;;;;;;;;5103866;28;20087;-65
2021/09/01 10:17:32;;;;;;;6.35;4.40;;;;;;;;;;5101277;27;20052;-65
2021/09/01 10:19:59;;;;;;;7.28;4.20;;;;;;;;;;5095148;27;20075;-65
2021/09/01 10:22:25;;;;;;;6.38;4.38;;;;;;;;;;5101699;28;20138;-65
2021/09/01 10:24:52;;;;;;;5.07;4.38;;;;;;;;;;5100756;27;20471;-65
2021/09/01 10:27:23;;;;;;;5.85;4.57;;;;;;;;;;5098166;28;20126;-65
2021/09/01 10:29:53;;;;;;;7.18;4.70;;;;;;;;;;5099979;27;20079;-65
2021/09/01 10:32:27;;;;;;;6.63;3.97;;;;;;;;;;5096640;27;20126;-65
2021/09/01 10:35:09;;;;;;;8.57;4.30;;;;;;;;;;5096416;28;20532;-65
2021/09/01 10:37:46;;;;;;;6.22;4.03;;;;;;;;;;5099530;28;20139;-65
2021/09/01 10:40:13;;;;;;;5.45;4.18;;;;;;;;;;5096617;28;20127;-65
2021/09/01 10:42:43;;;;;;;5.40;4.20;;;;;;;;;;5099809;28;20137;-65
2021/09/01 10:45:11;;;;;;;5.10;3.80;;;;;;;;;;5099140;28;20146;-64
2021/09/01 10:47:57;;;;;;;4.38;3.80;;;;;;;;;;5095515;28;20139;-65
2021/09/01 10:50:31;;;;;;;4.90;3.90;;;;;;;;;;5089802;27;20076;-65
2021/09/01 10:53:09;;;;;;;5.68;3.58;;;;;;;;;;5095859;27;20044;-65
2021/09/01 10:55:56;;;;;;;6.50;4.18;;;;;;;;;;5100737;28;20190;-65
2021/09/01 10:58:24;;;;;;;3.83;3.30;;;;;;;;;;5098326;28;20488;-64
2021/09/01 11:00:55;;;;;;;4.30;3.58;;;;;;;;;;5102246;28;20131;-65
2021/09/01 11:03:27;;;;;;;4.57;3.60;;;;;;;;;;5097436;28;20392;-65
2021/09/01 11:05:54;;;;;;;4.75;3.78;;;;;;;;;;5100814;28;20548;-65
2021/09/01 11:08:20;;;;;;;4.00;3.17;;;;;;;;;;5100412;28;20134;-65
2021/09/01 11:10:56;;;;;;;3.75;3.05;;;;;;;;;;5103370;27;20078;-65
2021/09/01 11:13:39;;;;;;;3.30;2.72;;;;;;;;;;5096935;28;20142;-64
2021/09/01 11:16:22;;;;;;;4.38;3.13;;;;;;;;;;5097777;27;20147;-65
2021/09/01 11:19:05;;;;;;;3.88;3.33;;;;;;;;;;5095236;28;20060;-64
2021/09/01 11:21:39;;;;;;;4.30;3.78;;;;;;;;;;5096030;28;20048;-64
2021/09/01 11:24:07;;;;;;;4.35;3.63;;;;;;;;;;5097239;28;20516;-65
2021/09/01 11:26:33;;;;;;;4.03;3.17;;;;;;;;;;5099011;28;20127;-65
2021/09/01 11:29:00;;;;;;;3.97;3.30;;;;;;;;;;5099916;27;20051;-65
2021/09/01 11:31:27;;;;;;;5.25;4.15;;;;;;;;;;5103211;28;20043;-65
2021/09/01 11:33:54;;;;;;;5.57;4.45;;;;;;;;;;5092889;28;20052;-64
2021/09/01 11:36:28;;;;;;;3.63;3.25;;;;;;;;;;5097193;28;20051;-64
2021/09/01 11:38:55;;;;;;;4.38;3.53;;;;;;;;;;5095986;28;20072;-64
2021/09/01 11:41:23;;;;;;;4.68;3.88;;;;;;;;;;5099492;28;20539;-64
2021/09/01 11:43:56;;;;;;;7.00;3.50;;;;;;;;;;5093850;28;20155;-65
2021/09/01 11:46:23;;;;;;;5.07;3.75;;;;;;;;;;5097656;28;20082;-65
2021/09/01 11:48:50;;;;;;;6.00;3.95;;;;;;;;;;5101521;28;20039;-64
2021/09/01 11:51:20;;;;;;;4.63;3.80;;;;;;;;;;5092204;28;20508;-65
2021/09/01 11:54:02;;;;;;;4.25;3.47;;;;;;;;;;5097329;28;20050;-65
2021/09/01 11:56:47;;;;;;;4.95;3.90;;;;;;;;;;5094789;28;20040;-65
2021/09/01 11:59:14;;;;;;;5.93;3.60;;;;;;;;;;5096778;28;20142;-65
2021/09/01 12:01:58;;;;;;;6.80;3.70;;;;;;;;;;5104931;27;20456;-64
2021/09/01 12:04:25;;;;;;;5.13;3.90;;;;;;;;;;5098635;27;20044;-65
2021/09/01 12:07:22;;;;;;;4.53;3.47;;;;;;;;;;5094819;28;20050;-65
2021/09/01 12:09:52;;;;;;;4.38;3.55;;;;;;;;;;5102700;27;20086;-65
2021/09/01 12:12:18;;;;;;;6.07;4.10;;;;;;;;;;5101866;27;20446;-64
2021/09/01 12:14:45;;;;;;;4.85;3.83;;;;;;;;;;5095620;28;20135;-64
2021/09/01 12:17:16;;;;;;;7.35;4.10;;;;;;;;;;5100373;27;20134;-64
2021/09/01 12:19:49;;;;;;;5.35;3.63;;;;;;;;;;5108488;28;20079;-65
2021/09/01 12:22:28;;;;;;;8.55;4.25;;;;;;;;;;5095483;27;20191;-64
2021/09/01 12:25:24;;;;;;;5.15;3.63;;;;;;;;;;5101973;28;20063;-64
2021/09/01 12:28:02;;;;;;;4.53;3.95;;;;;;;;;;5088208;27;20079;-64
2021/09/01 12:30:30;;;;;;;5.70;4.28;;;;;;;;;;5101690;28;20044;-64
2021/09/01 12:33:02;;;;;;;6.22;4.47;;;;;;;;;;5103804;27;20586;-64
2021/09/01 12:35:29;;;;;;;5.32;4.10;;;;;;;;;;5102958;28;20084;-64
2021/09/01 12:37:57;;;;;;;;;;;;;;;;;;5103139;27;20052;-64
2021/09/01 12:40:31;;;;;;;6.13;4.57;;;;;;;;;;5101379;27;20014;-65
2021/09/01 12:43:05;;;;;;;4.72;3.90;;;;;;;;;;5102030;28;20175;-64
2021/09/01 12:45:32;;;;;;;6.00;4.55;;;;;;;;;;5096781;28;20082;-64
2021/09/01 12:48:03;;;;;;;6.07;4.30;;;;;;;;;;5101758;27;20062;-65
2021/09/01 12:50:30;;;;;;;7.57;4.20;;;;;;;;;;5099915;27;20574;-64
2021/09/01 12:52:58;;;;;;;6.75;3.95;;;;;;;;;;5103900;28;20448;-64
2021/09/01 12:55:25;;;;;;;5.85;3.70;;;;;;;;;;5095399;28;20135;-65
2021/09/01 12:57:52;;;;;;;6.22;4.00;;;;;;;;;;5101153;28;20132;-65
2021/09/01 13:00:18;;;;;;;5.53;3.70;;;;;;;;;;5102040;27;20081;-64
2021/09/01 13:02:45;;;;;;;4.97;4.10;;;;;;;;;;5098967;28;20055;-64
2021/09/01 13:05:11;;;;;;;5.15;4.20;;;;;;;;;;5096375;28;20093;-65
2021/09/01 13:07:38;;;;;;;6.15;4.20;;;;;;;;;;5100229;28;20131;-64
2021/09/01 13:10:05;;;;;;;5.55;3.70;;;;;;;;;;5100018;27;20052;-64
2021/09/01 13:12:31;;;;;;;5.40;4.25;;;;;;;;;;5104375;27;20445;-65
2021/09/01 13:14:58;;;;;;;5.15;3.95;;;;;;;;;;5096749;28;20104;-65
2021/09/01 13:17:25;;;;;;;6.00;4.25;;;;;;;;;;5101861;28;20161;-65
2021/09/01 13:19:52;;;;;;;6.38;4.20;;;;;;;;;;5101166;28;20071;-65
2021/09/01 13:22:21;;;;;;;6.82;3.95;;;;;;;;;;5104769;27;20124;-65
2021/09/01 13:24:48;;;;;;;6.10;4.47;;;;;;;;;;5098089;28;20086;-65
2021/09/01 13:27:14;;;;;;;9.05;4.90;;;;;;;;;;5098715;28;20154;-65
2021/09/01 13:29:41;;;;;;;7.47;4.33;;;;;;;;;;5101394;28;20127;-65
2021/09/01 13:32:07;;;;;;;8.13;4.10;;;;;;;;;;5096627;28;20052;-65
2021/09/01 13:34:34;;;;;;;5.72;4.15;;;;;;;;;;5104597;28;20308;-65
2021/09/01 13:37:01;;;;;;;6.85;4.80;;;;;;;;;;5099321;28;20130;-65
2021/09/01 13:39:27;;;;;;;5.45;4.00;;;;;;;;;;5098192;28;20471;-65
2021/09/01 13:41:54;;;;;;;5.78;4.15;;;;;;;;;;5102852;27;20119;-65
2021/09/01 13:44:20;;;;;;;5.05;4.53;;;;;;;;;;5097827;28;20140;-65
2021/09/01 13:46:47;;;;;;;7.55;4.65;;;;;;;;;;5101409;27;20047;-65
2021/09/01 13:49:14;;;;;;;5.05;4.38;;;;;;;;;;5095745;28;20080;-65
2021/09/01 13:51:40;;;;;;;7.57;4.60;;;;;;;;;;5098718;27;20135;-65
2021/09/01 13:54:07;;;;;;;5.07;4.57;;;;;;;;;;5096063;28;20402;-65
2021/09/01 13:56:33;;;;;;;7.55;5.35;;;;;;;;;;5100713;28;20134;-65
2021/09/01 13:59:00;;;;;;;8.20;4.60;;;;;;;;;;5101289;27;20530;-65
2021/09/01 14:01:26;;;;;;;5.68;4.68;;;;;;;;;;5102942;28;20070;-65
2021/09/01 14:03:54;;;;;;;6.25;4.72;;;;;;;;;;5095321;28;20400;-65
2021/09/01 14:06:21;;;;;;;;;;;;;;;;;;5097597;28;20048;-65
2021/09/01 14:08:48;;;;;;;4.95;4.25;;;;;;;;;;5095677;27;20351;-65
2021/09/01 14:11:14;;;;;;;6.80;4.63;;;;;;;;;;5105876;27;20134;-65
2021/09/01 14:13:41;;;;;;;4.70;4.17;;;;;;;;;;5097554;28;20134;-66
2021/09/01 14:16:11;;;;;;;7.30;4.63;;;;;;;;;;5094356;28;20489;-65
2021/09/01 14:18:37;;;;;;;6.55;4.80;;;;;;;;;;5097231;28;20052;-65
2021/09/01 14:21:03;;;;;;;6.90;4.53;;;;;;;;;;5097787;28;20119;-65
2021/09/01 14:23:30;;;;;;;5.70;4.50;;;;;;;;;;5098451;28;20062;-65
2021/09/01 14:25:57;;;;;;;6.07;5.00;;;;;;;;;;5095845;28;20090;-65
2021/09/01 14:28:23;;;;;;;6.68;5.10;;;;;;;;;;5094242;28;20079;-65
2021/09/01 14:30:50;;;;;;;7.25;4.35;;;;;;;;;;5100381;28;20086;-65
2021/09/01 14:33:17;;;;;;;5.88;4.53;;;;;;;;;;5098024;28;20206;-65
2021/09/01 14:35:44;;;;;;;5.15;4.57;;;;;;;;;;5098091;28;20043;-65
2021/09/01 14:38:12;;;;;;;6.05;5.22;;;;;;;;;;5099254;27;20142;-65
2021/09/01 14:40:39;;;;;;;6.45;5.25;;;;;;;;;;5099532;27;20090;-65
2021/09/01 14:43:06;;;;;;;5.97;4.90;;;;;;;;;;5096284;27;20090;-65